sensor_id;sensor_type;location;lat;lon;timestamp;P1;durP1;ratioP1;P2;durP2;ratioP2
37445;SDS011;23307;51.136;14.942;2022-12-26T00:01:36;9.38;;;5.57;;
37445;SDS011;23307;51.136;14.942;2022-12-26T00:04:02;7.13;;;5.47;;
37445;SDS011;23307;51.136;14.942;2022-12-26T00:06:29;7.55;;;5.32;;
37445;SDS011;23307;51.136;14.942;2022-12-26T00:08:55;9.05;;;5.82;;
37445;SDS011;23307;51.136;14.942;2022-12-26T00:11:22;8.35;;;5.80;;
37445;SDS011;23307;51.136;14.942;2022-12-26T00:13:56;8.23;;;5.75;;
37445;SDS011;23307;51.136;14.942;2022-12-26T00:16:24;8.73;;;5.20;;
37445;SDS011;23307;51.136;14.942;2022-12-26T00:18:50;10.05;;;6.10;;
37445;SDS011;23307;51.136;14.942;2022-12-26T00:21:16;8.05;;;5.35;;
37445;SDS011;23307;51.136;14.942;2022-12-26T00:23:43;8.25;;;5.45;;
37445;SDS011;23307;51.136;14.942;2022-12-26T00:26:15;10.40;;;5.95;;
37445;SDS011;23307;51.136;14.942;2022-12-26T00:28:42;10.52;;;6.22;;
37445;SDS011;23307;51.136;14.942;2022-12-26T00:31:09;9.07;;;5.97;;
37445;SDS011;23307;51.136;14.942;2022-12-26T00:33:43;8.40;;;5.80;;
37445;SDS011;23307;51.136;14.942;2022-12-26T00:36:19;10.57;;;5.90;;
37445;SDS011;23307;51.136;14.942;2022-12-26T00:38:47;8.55;;;5.40;;
37445;SDS011;23307;51.136;14.942;2022-12-26T00:41:13;11.07;;;5.60;;
37445;SDS011;23307;51.136;14.942;2022-12-26T00:43:40;8.60;;;5.53;;
37445;SDS011;23307;51.136;14.942;2022-12-26T00:46:06;11.20;;;6.80;;
37445;SDS011;23307;51.136;14.942;2022-12-26T00:48:32;8.25;;;5.97;;
37445;SDS011;23307;51.136;14.942;2022-12-26T00:50:58;8.40;;;6.20;;
37445;SDS011;23307;51.136;14.942;2022-12-26T00:53:24;11.73;;;6.82;;
37445;SDS011;23307;51.136;14.942;2022-12-26T00:55:50;8.65;;;6.18;;
37445;SDS011;23307;51.136;14.942;2022-12-26T00:58:16;10.82;;;6.38;;
37445;SDS011;23307;51.136;14.942;2022-12-26T01:00:42;10.75;;;6.55;;
37445;SDS011;23307;51.136;14.942;2022-12-26T01:03:08;10.27;;;7.03;;
37445;SDS011;23307;51.136;14.942;2022-12-26T01:05:39;9.07;;;6.65;;
37445;SDS011;23307;51.136;14.942;2022-12-26T01:08:06;13.32;;;6.65;;
37445;SDS011;23307;51.136;14.942;2022-12-26T01:10:31;8.93;;;6.57;;
37445;SDS011;23307;51.136;14.942;2022-12-26T01:12:57;9.85;;;6.40;;
37445;SDS011;23307;51.136;14.942;2022-12-26T01:15:22;11.02;;;6.78;;
37445;SDS011;23307;51.136;14.942;2022-12-26T01:17:48;8.20;;;5.82;;
37445;SDS011;23307;51.136;14.942;2022-12-26T01:20:13;9.82;;;6.90;;
37445;SDS011;23307;51.136;14.942;2022-12-26T01:22:39;10.60;;;6.72;;
37445;SDS011;23307;51.136;14.942;2022-12-26T01:25:04;8.55;;;6.55;;
37445;SDS011;23307;51.136;14.942;2022-12-26T01:27:31;12.85;;;7.10;;
37445;SDS011;23307;51.136;14.942;2022-12-26T01:29:56;10.13;;;6.78;;
37445;SDS011;23307;51.136;14.942;2022-12-26T01:32:22;10.10;;;7.00;;
37445;SDS011;23307;51.136;14.942;2022-12-26T01:34:48;10.35;;;6.55;;
37445;SDS011;23307;51.136;14.942;2022-12-26T01:37:14;9.30;;;6.67;;
37445;SDS011;23307;51.136;14.942;2022-12-26T01:39:40;8.95;;;6.55;;
37445;SDS011;23307;51.136;14.942;2022-12-26T01:42:11;9.20;;;6.80;;
37445;SDS011;23307;51.136;14.942;2022-12-26T01:44:53;10.65;;;7.38;;
37445;SDS011;23307;51.136;14.942;2022-12-26T01:47:39;8.90;;;6.57;;
37445;SDS011;23307;51.136;14.942;2022-12-26T01:50:27;10.07;;;7.30;;
37445;SDS011;23307;51.136;14.942;2022-12-26T01:53:12;10.07;;;7.47;;
37445;SDS011;23307;51.136;14.942;2022-12-26T01:55:42;10.45;;;7.53;;
37445;SDS011;23307;51.136;14.942;2022-12-26T01:58:13;7.95;;;6.35;;
37445;SDS011;23307;51.136;14.942;2022-12-26T02:00:45;10.30;;;7.10;;
37445;SDS011;23307;51.136;14.942;2022-12-26T02:03:12;11.65;;;6.90;;
37445;SDS011;23307;51.136;14.942;2022-12-26T02:05:56;10.73;;;7.05;;
37445;SDS011;23307;51.136;14.942;2022-12-26T02:08:25;9.95;;;7.38;;
37445;SDS011;23307;51.136;14.942;2022-12-26T02:13:33;11.40;;;7.55;;
37445;SDS011;23307;51.136;14.942;2022-12-26T02:16:00;12.10;;;6.95;;
37445;SDS011;23307;51.136;14.942;2022-12-26T02:18:28;10.40;;;7.25;;
37445;SDS011;23307;51.136;14.942;2022-12-26T02:23:58;10.80;;;7.35;;
37445;SDS011;23307;51.136;14.942;2022-12-26T02:26:29;8.80;;;7.13;;
37445;SDS011;23307;51.136;14.942;2022-12-26T02:32:13;10.93;;;7.38;;
37445;SDS011;23307;51.136;14.942;2022-12-26T02:42:58;11.60;;;7.57;;
37445;SDS011;23307;51.136;14.942;2022-12-26T02:45:37;10.07;;;7.30;;
37445;SDS011;23307;51.136;14.942;2022-12-26T02:57:40;10.68;;;6.88;;
37445;SDS011;23307;51.136;14.942;2022-12-26T03:00:31;13.15;;;7.47;;
37445;SDS011;23307;51.136;14.942;2022-12-26T03:03:19;10.60;;;7.57;;
37445;SDS011;23307;51.136;14.942;2022-12-26T03:06:16;9.35;;;6.75;;
37445;SDS011;23307;51.136;14.942;2022-12-26T03:09:19;12.55;;;7.97;;
37445;SDS011;23307;51.136;14.942;2022-12-26T03:12:08;10.27;;;7.90;;
37445;SDS011;23307;51.136;14.942;2022-12-26T03:15:03;10.73;;;8.15;;
37445;SDS011;23307;51.136;14.942;2022-12-26T03:17:37;11.38;;;8.32;;
37445;SDS011;23307;51.136;14.942;2022-12-26T03:20:19;11.38;;;7.53;;
37445;SDS011;23307;51.136;14.942;2022-12-26T03:22:50;11.90;;;8.10;;
37445;SDS011;23307;51.136;14.942;2022-12-26T03:25:39;11.73;;;8.30;;
37445;SDS011;23307;51.136;14.942;2022-12-26T03:28:32;12.57;;;7.80;;
37445;SDS011;23307;51.136;14.942;2022-12-26T03:30:58;11.05;;;7.97;;
37445;SDS011;23307;51.136;14.942;2022-12-26T03:33:30;12.95;;;8.57;;
37445;SDS011;23307;51.136;14.942;2022-12-26T03:36:40;10.70;;;8.63;;
37445;SDS011;23307;51.136;14.942;2022-12-26T03:45:47;12.23;;;7.53;;
37445;SDS011;23307;51.136;14.942;2022-12-26T03:51:50;12.25;;;7.88;;
37445;SDS011;23307;51.136;14.942;2022-12-26T03:55:00;9.73;;;7.37;;
37445;SDS011;23307;51.136;14.942;2022-12-26T03:57:50;8.70;;;7.70;;
37445;SDS011;23307;51.136;14.942;2022-12-26T04:00:43;12.90;;;7.80;;
37445;SDS011;23307;51.136;14.942;2022-12-26T04:03:31;10.63;;;8.07;;
37445;SDS011;23307;51.136;14.942;2022-12-26T04:06:18;9.85;;;7.82;;
37445;SDS011;23307;51.136;14.942;2022-12-26T04:09:19;10.75;;;7.78;;
37445;SDS011;23307;51.136;14.942;2022-12-26T04:12:13;10.43;;;7.47;;
37445;SDS011;23307;51.136;14.942;2022-12-26T04:15:04;10.90;;;7.78;;
37445;SDS011;23307;51.136;14.942;2022-12-26T04:18:02;12.80;;;8.48;;
37445;SDS011;23307;51.136;14.942;2022-12-26T04:21:10;11.93;;;8.07;;
37445;SDS011;23307;51.136;14.942;2022-12-26T04:24:23;9.70;;;7.82;;
37445;SDS011;23307;51.136;14.942;2022-12-26T04:27:10;12.02;;;9.07;;
37445;SDS011;23307;51.136;14.942;2022-12-26T04:29:55;12.30;;;9.07;;
37445;SDS011;23307;51.136;14.942;2022-12-26T04:32:47;13.27;;;8.73;;
37445;SDS011;23307;51.136;14.942;2022-12-26T04:35:33;12.52;;;9.27;;
37445;SDS011;23307;51.136;14.942;2022-12-26T04:38:48;11.48;;;9.02;;
37445;SDS011;23307;51.136;14.942;2022-12-26T04:41:37;11.43;;;8.52;;
37445;SDS011;23307;51.136;14.942;2022-12-26T04:44:23;10.73;;;8.35;;
37445;SDS011;23307;51.136;14.942;2022-12-26T04:46:51;10.38;;;8.18;;
37445;SDS011;23307;51.136;14.942;2022-12-26T04:49:18;10.20;;;7.97;;
37445;SDS011;23307;51.136;14.942;2022-12-26T04:52:07;10.73;;;7.85;;
37445;SDS011;23307;51.136;14.942;2022-12-26T04:54:34;10.98;;;7.63;;
37445;SDS011;23307;51.136;14.942;2022-12-26T04:57:00;10.68;;;7.88;;
37445;SDS011;23307;51.136;14.942;2022-12-26T04:59:25;12.07;;;8.02;;
37445;SDS011;23307;51.136;14.942;2022-12-26T05:01:51;10.63;;;8.57;;
37445;SDS011;23307;51.136;14.942;2022-12-26T05:04:36;10.93;;;8.48;;
37445;SDS011;23307;51.136;14.942;2022-12-26T05:07:21;8.90;;;7.75;;
37445;SDS011;23307;51.136;14.942;2022-12-26T05:10:10;9.93;;;8.55;;
37445;SDS011;23307;51.136;14.942;2022-12-26T05:12:41;10.10;;;8.15;;
37445;SDS011;23307;51.136;14.942;2022-12-26T05:15:06;10.00;;;8.43;;
37445;SDS011;23307;51.136;14.942;2022-12-26T05:17:32;11.07;;;8.02;;
37445;SDS011;23307;51.136;14.942;2022-12-26T05:20:16;9.95;;;7.55;;
37445;SDS011;23307;51.136;14.942;2022-12-26T05:23:00;10.63;;;7.80;;
37445;SDS011;23307;51.136;14.942;2022-12-26T05:25:45;9.80;;;7.60;;
37445;SDS011;23307;51.136;14.942;2022-12-26T05:28:31;11.57;;;8.93;;
37445;SDS011;23307;51.136;14.942;2022-12-26T05:31:05;10.43;;;7.57;;
37445;SDS011;23307;51.136;14.942;2022-12-26T05:33:32;11.32;;;8.35;;
37445;SDS011;23307;51.136;14.942;2022-12-26T05:36:16;11.07;;;7.80;;
37445;SDS011;23307;51.136;14.942;2022-12-26T05:38:44;10.35;;;7.70;;
37445;SDS011;23307;51.136;14.942;2022-12-26T05:41:12;9.95;;;7.47;;
37445;SDS011;23307;51.136;14.942;2022-12-26T05:43:37;10.55;;;7.75;;
37445;SDS011;23307;51.136;14.942;2022-12-26T05:46:03;12.60;;;8.75;;
37445;SDS011;23307;51.136;14.942;2022-12-26T05:48:29;10.85;;;8.25;;
37445;SDS011;23307;51.136;14.942;2022-12-26T05:50:58;10.77;;;8.10;;
37445;SDS011;23307;51.136;14.942;2022-12-26T05:53:25;10.68;;;8.63;;
37445;SDS011;23307;51.136;14.942;2022-12-26T05:55:51;12.82;;;8.73;;
37445;SDS011;23307;51.136;14.942;2022-12-26T05:58:16;10.75;;;8.35;;
37445;SDS011;23307;51.136;14.942;2022-12-26T06:00:42;12.07;;;8.65;;
37445;SDS011;23307;51.136;14.942;2022-12-26T06:03:07;10.73;;;8.30;;
37445;SDS011;23307;51.136;14.942;2022-12-26T06:05:33;11.90;;;8.93;;
37445;SDS011;23307;51.136;14.942;2022-12-26T06:07:59;12.55;;;8.68;;
37445;SDS011;23307;51.136;14.942;2022-12-26T06:10:25;13.68;;;8.75;;
37445;SDS011;23307;51.136;14.942;2022-12-26T06:12:53;12.15;;;7.97;;
37445;SDS011;23307;51.136;14.942;2022-12-26T06:15:19;11.68;;;8.60;;
37445;SDS011;23307;51.136;14.942;2022-12-26T06:17:44;13.18;;;9.25;;
37445;SDS011;23307;51.136;14.942;2022-12-26T06:20:10;11.32;;;8.73;;
37445;SDS011;23307;51.136;14.942;2022-12-26T06:22:36;12.07;;;9.60;;
37445;SDS011;23307;51.136;14.942;2022-12-26T06:25:01;9.82;;;7.90;;
37445;SDS011;23307;51.136;14.942;2022-12-26T06:27:27;13.05;;;9.07;;
37445;SDS011;23307;51.136;14.942;2022-12-26T06:29:52;12.50;;;9.05;;
37445;SDS011;23307;51.136;14.942;2022-12-26T06:32:18;11.10;;;8.80;;
37445;SDS011;23307;51.136;14.942;2022-12-26T06:34:43;10.53;;;8.07;;
37445;SDS011;23307;51.136;14.942;2022-12-26T06:37:09;13.05;;;8.45;;
37445;SDS011;23307;51.136;14.942;2022-12-26T06:39:35;12.73;;;8.98;;
37445;SDS011;23307;51.136;14.942;2022-12-26T06:42:01;12.20;;;9.05;;
37445;SDS011;23307;51.136;14.942;2022-12-26T06:44:26;12.87;;;9.47;;
37445;SDS011;23307;51.136;14.942;2022-12-26T06:46:52;11.25;;;8.20;;
37445;SDS011;23307;51.136;14.942;2022-12-26T06:49:17;12.85;;;8.90;;
37445;SDS011;23307;51.136;14.942;2022-12-26T06:51:43;12.43;;;8.87;;
37445;SDS011;23307;51.136;14.942;2022-12-26T06:54:09;9.75;;;8.32;;
37445;SDS011;23307;51.136;14.942;2022-12-26T06:56:35;11.18;;;8.73;;
37445;SDS011;23307;51.136;14.942;2022-12-26T06:59:02;13.85;;;9.07;;
37445;SDS011;23307;51.136;14.942;2022-12-26T07:01:30;12.82;;;8.55;;
37445;SDS011;23307;51.136;14.942;2022-12-26T07:03:57;12.43;;;8.35;;
37445;SDS011;23307;51.136;14.942;2022-12-26T07:08:58;11.13;;;8.07;;
37445;SDS011;23307;51.136;14.942;2022-12-26T07:11:27;11.32;;;8.98;;
37445;SDS011;23307;51.136;14.942;2022-12-26T07:13:54;9.63;;;8.10;;
37445;SDS011;23307;51.136;14.942;2022-12-26T07:16:21;10.77;;;8.32;;
37445;SDS011;23307;51.136;14.942;2022-12-26T07:18:47;12.43;;;8.37;;
37445;SDS011;23307;51.136;14.942;2022-12-26T07:21:14;11.13;;;8.30;;
37445;SDS011;23307;51.136;14.942;2022-12-26T07:23:40;12.35;;;8.30;;
37445;SDS011;23307;51.136;14.942;2022-12-26T07:26:06;11.95;;;8.35;;
37445;SDS011;23307;51.136;14.942;2022-12-26T07:28:32;10.73;;;8.03;;
37445;SDS011;23307;51.136;14.942;2022-12-26T07:30:58;9.25;;;7.15;;
37445;SDS011;23307;51.136;14.942;2022-12-26T07:33:25;12.65;;;8.27;;
37445;SDS011;23307;51.136;14.942;2022-12-26T07:35:51;10.02;;;7.57;;
37445;SDS011;23307;51.136;14.942;2022-12-26T07:38:17;11.15;;;8.13;;
37445;SDS011;23307;51.136;14.942;2022-12-26T07:40:43;11.38;;;7.10;;
37445;SDS011;23307;51.136;14.942;2022-12-26T07:43:09;10.75;;;8.13;;
37445;SDS011;23307;51.136;14.942;2022-12-26T07:45:35;10.77;;;7.82;;
37445;SDS011;23307;51.136;14.942;2022-12-26T07:48:00;11.38;;;7.68;;
37445;SDS011;23307;51.136;14.942;2022-12-26T07:50:26;10.77;;;7.57;;
37445;SDS011;23307;51.136;14.942;2022-12-26T07:52:52;9.43;;;7.18;;
37445;SDS011;23307;51.136;14.942;2022-12-26T07:55:18;10.82;;;8.05;;
37445;SDS011;23307;51.136;14.942;2022-12-26T07:57:48;9.63;;;7.32;;
37445;SDS011;23307;51.136;14.942;2022-12-26T08:00:17;10.27;;;7.85;;
37445;SDS011;23307;51.136;14.942;2022-12-26T08:02:44;9.57;;;7.32;;
37445;SDS011;23307;51.136;14.942;2022-12-26T08:05:13;10.38;;;7.65;;
37445;SDS011;23307;51.136;14.942;2022-12-26T08:07:40;9.90;;;7.88;;
37445;SDS011;23307;51.136;14.942;2022-12-26T08:10:05;10.20;;;7.60;;
37445;SDS011;23307;51.136;14.942;2022-12-26T08:12:32;10.50;;;7.87;;
37445;SDS011;23307;51.136;14.942;2022-12-26T08:14:58;10.40;;;7.83;;
37445;SDS011;23307;51.136;14.942;2022-12-26T08:17:23;9.98;;;7.40;;
37445;SDS011;23307;51.136;14.942;2022-12-26T08:19:49;9.60;;;8.07;;
37445;SDS011;23307;51.136;14.942;2022-12-26T08:22:15;11.70;;;7.37;;
37445;SDS011;23307;51.136;14.942;2022-12-26T08:24:40;9.55;;;8.02;;
37445;SDS011;23307;51.136;14.942;2022-12-26T08:27:06;8.90;;;7.78;;
37445;SDS011;23307;51.136;14.942;2022-12-26T08:29:32;10.20;;;7.57;;
37445;SDS011;23307;51.136;14.942;2022-12-26T08:31:57;10.75;;;7.65;;
37445;SDS011;23307;51.136;14.942;2022-12-26T08:34:23;12.55;;;7.93;;
37445;SDS011;23307;51.136;14.942;2022-12-26T08:36:55;9.10;;;7.10;;
37445;SDS011;23307;51.136;14.942;2022-12-26T08:39:22;9.73;;;7.38;;
37445;SDS011;23307;51.136;14.942;2022-12-26T08:41:48;9.50;;;7.75;;
37445;SDS011;23307;51.136;14.942;2022-12-26T08:44:13;8.63;;;7.22;;
37445;SDS011;23307;51.136;14.942;2022-12-26T08:46:41;9.77;;;7.35;;
37445;SDS011;23307;51.136;14.942;2022-12-26T08:49:07;8.38;;;7.30;;
37445;SDS011;23307;51.136;14.942;2022-12-26T08:51:34;9.57;;;7.70;;
37445;SDS011;23307;51.136;14.942;2022-12-26T08:54:00;11.07;;;7.55;;
37445;SDS011;23307;51.136;14.942;2022-12-26T08:56:26;10.00;;;7.20;;
37445;SDS011;23307;51.136;14.942;2022-12-26T08:58:52;10.65;;;7.20;;
37445;SDS011;23307;51.136;14.942;2022-12-26T09:03:46;9.88;;;7.40;;
37445;SDS011;23307;51.136;14.942;2022-12-26T09:06:13;11.45;;;7.15;;
37445;SDS011;23307;51.136;14.942;2022-12-26T09:08:39;9.48;;;6.70;;
37445;SDS011;23307;51.136;14.942;2022-12-26T09:11:07;8.45;;;6.78;;
37445;SDS011;23307;51.136;14.942;2022-12-26T09:13:37;8.13;;;6.95;;
37445;SDS011;23307;51.136;14.942;2022-12-26T09:16:09;7.95;;;6.80;;
37445;SDS011;23307;51.136;14.942;2022-12-26T09:18:37;7.82;;;6.53;;
37445;SDS011;23307;51.136;14.942;2022-12-26T09:21:04;9.90;;;7.03;;
37445;SDS011;23307;51.136;14.942;2022-12-26T09:23:31;9.02;;;6.90;;
37445;SDS011;23307;51.136;14.942;2022-12-26T09:26:05;8.00;;;6.30;;
37445;SDS011;23307;51.136;14.942;2022-12-26T09:28:33;9.85;;;6.22;;
37445;SDS011;23307;51.136;14.942;2022-12-26T09:31:00;8.70;;;6.53;;
37445;SDS011;23307;51.136;14.942;2022-12-26T09:33:27;7.97;;;6.07;;
37445;SDS011;23307;51.136;14.942;2022-12-26T09:35:54;7.70;;;6.00;;
37445;SDS011;23307;51.136;14.942;2022-12-26T09:38:20;7.57;;;5.75;;
37445;SDS011;23307;51.136;14.942;2022-12-26T09:40:51;9.55;;;6.57;;
37445;SDS011;23307;51.136;14.942;2022-12-26T09:46:00;8.45;;;6.15;;
37445;SDS011;23307;51.136;14.942;2022-12-26T09:48:58;9.38;;;5.75;;
37445;SDS011;23307;51.136;14.942;2022-12-26T09:51:26;8.23;;;5.80;;
37445;SDS011;23307;51.136;14.942;2022-12-26T09:53:53;7.32;;;6.00;;
37445;SDS011;23307;51.136;14.942;2022-12-26T09:56:19;8.35;;;5.60;;
37445;SDS011;23307;51.136;14.942;2022-12-26T09:58:48;7.22;;;5.25;;
37445;SDS011;23307;51.136;14.942;2022-12-26T10:03:46;7.53;;;5.55;;
37445;SDS011;23307;51.136;14.942;2022-12-26T10:08:44;11.32;;;5.25;;
37445;SDS011;23307;51.136;14.942;2022-12-26T10:14:06;7.10;;;5.45;;
37445;SDS011;23307;51.136;14.942;2022-12-26T10:16:48;7.53;;;5.25;;
37445;SDS011;23307;51.136;14.942;2022-12-26T10:22:34;7.55;;;5.78;;
37445;SDS011;23307;51.136;14.942;2022-12-26T10:25:12;8.85;;;5.10;;
37445;SDS011;23307;51.136;14.942;2022-12-26T10:27:42;7.82;;;5.15;;
37445;SDS011;23307;51.136;14.942;2022-12-26T10:30:15;7.15;;;5.38;;
37445;SDS011;23307;51.136;14.942;2022-12-26T10:32:56;6.90;;;5.55;;
37445;SDS011;23307;51.136;14.942;2022-12-26T10:35:27;6.05;;;4.75;;
37445;SDS011;23307;51.136;14.942;2022-12-26T10:38:04;8.50;;;5.20;;
37445;SDS011;23307;51.136;14.942;2022-12-26T10:40:36;8.98;;;6.00;;
37445;SDS011;23307;51.136;14.942;2022-12-26T10:45:54;6.80;;;4.93;;
37445;SDS011;23307;51.136;14.942;2022-12-26T10:48:34;7.97;;;5.50;;
37445;SDS011;23307;51.136;14.942;2022-12-26T10:51:00;8.32;;;5.20;;
37445;SDS011;23307;51.136;14.942;2022-12-26T10:53:25;6.55;;;4.90;;
37445;SDS011;23307;51.136;14.942;2022-12-26T10:55:51;7.97;;;5.38;;
37445;SDS011;23307;51.136;14.942;2022-12-26T10:58:21;6.93;;;4.88;;
37445;SDS011;23307;51.136;14.942;2022-12-26T11:00:51;7.55;;;5.35;;
37445;SDS011;23307;51.136;14.942;2022-12-26T11:03:18;5.95;;;4.90;;
37445;SDS011;23307;51.136;14.942;2022-12-26T11:05:45;6.32;;;5.18;;
37445;SDS011;23307;51.136;14.942;2022-12-26T11:11:06;7.25;;;5.00;;
37445;SDS011;23307;51.136;14.942;2022-12-26T11:13:36;6.18;;;4.68;;
37445;SDS011;23307;51.136;14.942;2022-12-26T11:16:05;6.60;;;5.05;;
37445;SDS011;23307;51.136;14.942;2022-12-26T11:18:48;7.28;;;5.25;;
37445;SDS011;23307;51.136;14.942;2022-12-26T11:23:45;6.78;;;5.07;;
37445;SDS011;23307;51.136;14.942;2022-12-26T11:26:18;8.50;;;5.68;;
37445;SDS011;23307;51.136;14.942;2022-12-26T11:28:45;8.23;;;5.57;;
37445;SDS011;23307;51.136;14.942;2022-12-26T11:31:22;6.40;;;4.78;;
37445;SDS011;23307;51.136;14.942;2022-12-26T11:33:51;7.20;;;5.18;;
37445;SDS011;23307;51.136;14.942;2022-12-26T11:36:21;7.60;;;4.68;;
37445;SDS011;23307;51.136;14.942;2022-12-26T11:41:47;6.03;;;4.18;;
37445;SDS011;23307;51.136;14.942;2022-12-26T11:46:48;6.00;;;4.45;;
37445;SDS011;23307;51.136;14.942;2022-12-26T11:51:57;6.80;;;4.82;;
37445;SDS011;23307;51.136;14.942;2022-12-26T11:54:33;6.22;;;4.20;;
37445;SDS011;23307;51.136;14.942;2022-12-26T11:57:10;6.15;;;4.10;;
37445;SDS011;23307;51.136;14.942;2022-12-26T11:59:44;5.07;;;4.13;;
37445;SDS011;23307;51.136;14.942;2022-12-26T12:04:39;5.05;;;3.88;;
37445;SDS011;23307;51.136;14.942;2022-12-26T12:07:13;7.55;;;4.85;;
37445;SDS011;23307;51.136;14.942;2022-12-26T12:12:53;5.72;;;4.43;;
37445;SDS011;23307;51.136;14.942;2022-12-26T12:15:28;7.25;;;4.63;;
37445;SDS011;23307;51.136;14.942;2022-12-26T12:18:05;6.57;;;4.88;;
37445;SDS011;23307;51.136;14.942;2022-12-26T12:26:31;6.38;;;4.30;;
37445;SDS011;23307;51.136;14.942;2022-12-26T12:29:11;6.18;;;4.72;;
37445;SDS011;23307;51.136;14.942;2022-12-26T12:32:04;7.57;;;5.30;;
37445;SDS011;23307;51.136;14.942;2022-12-26T12:35:05;9.65;;;5.57;;
37445;SDS011;23307;51.136;14.942;2022-12-26T12:38:43;10.45;;;5.60;;
37445;SDS011;23307;51.136;14.942;2022-12-26T12:40:56;7.28;;;5.43;;
37445;SDS011;23307;51.136;14.942;2022-12-26T12:49:21;6.70;;;4.97;;
37445;SDS011;23307;51.136;14.942;2022-12-26T12:52:12;6.82;;;4.82;;
37445;SDS011;23307;51.136;14.942;2022-12-26T12:57:41;8.10;;;4.93;;
37445;SDS011;23307;51.136;14.942;2022-12-26T13:00:25;7.55;;;4.68;;
37445;SDS011;23307;51.136;14.942;2022-12-26T13:03:07;6.25;;;4.57;;
37445;SDS011;23307;51.136;14.942;2022-12-26T13:06:23;6.30;;;4.38;;
37445;SDS011;23307;51.136;14.942;2022-12-26T13:08:47;6.03;;;4.53;;
37445;SDS011;23307;51.136;14.942;2022-12-26T13:11:28;7.18;;;4.70;;
37445;SDS011;23307;51.136;14.942;2022-12-26T13:14:21;5.93;;;5.32;;
37445;SDS011;23307;51.136;14.942;2022-12-26T13:17:12;7.00;;;4.90;;
37445;SDS011;23307;51.136;14.942;2022-12-26T13:20:13;6.47;;;5.13;;
37445;SDS011;23307;51.136;14.942;2022-12-26T13:22:44;6.78;;;5.22;;
37445;SDS011;23307;51.136;14.942;2022-12-26T13:25:45;8.45;;;5.25;;
37445;SDS011;23307;51.136;14.942;2022-12-26T13:28:22;9.20;;;6.40;;
37445;SDS011;23307;51.136;14.942;2022-12-26T13:30:52;7.78;;;5.22;;
37445;SDS011;23307;51.136;14.942;2022-12-26T13:33:19;6.65;;;5.40;;
37445;SDS011;23307;51.136;14.942;2022-12-26T13:36:05;8.05;;;5.70;;
37445;SDS011;23307;51.136;14.942;2022-12-26T13:41:16;6.25;;;5.25;;
37445;SDS011;23307;51.136;14.942;2022-12-26T13:44:04;6.55;;;4.97;;
37445;SDS011;23307;51.136;14.942;2022-12-26T13:54:36;6.72;;;5.18;;
37445;SDS011;23307;51.136;14.942;2022-12-26T13:57:10;8.85;;;5.63;;
37445;SDS011;23307;51.136;14.942;2022-12-26T14:02:43;8.68;;;5.63;;
37445;SDS011;23307;51.136;14.942;2022-12-26T14:05:20;7.65;;;5.60;;
37445;SDS011;23307;51.136;14.942;2022-12-26T14:08:12;6.82;;;5.50;;
37445;SDS011;23307;51.136;14.942;2022-12-26T14:13:55;7.60;;;5.65;;
37445;SDS011;23307;51.136;14.942;2022-12-26T14:16:49;7.30;;;5.43;;
37445;SDS011;23307;51.136;14.942;2022-12-26T14:25:20;4.10;;;2.90;;
37445;SDS011;23307;51.136;14.942;2022-12-26T14:27:59;3.88;;;2.17;;
37445;SDS011;23307;51.136;14.942;2022-12-26T14:30:52;3.80;;;2.25;;
37445;SDS011;23307;51.136;14.942;2022-12-26T14:33:28;5.32;;;2.20;;
37445;SDS011;23307;51.136;14.942;2022-12-26T14:36:13;2.90;;;2.10;;
37445;SDS011;23307;51.136;14.942;2022-12-26T14:44:57;4.63;;;1.95;;
37445;SDS011;23307;51.136;14.942;2022-12-26T15:00:43;1.38;;;1.17;;
37445;SDS011;23307;51.136;14.942;2022-12-26T15:05:53;0.90;;;0.77;;
37445;SDS011;23307;51.136;14.942;2022-12-26T15:14:34;0.85;;;0.50;;
37445;SDS011;23307;51.136;14.942;2022-12-26T15:17:30;0.70;;;0.70;;
37445;SDS011;23307;51.136;14.942;2022-12-26T15:33:49;1.00;;;0.90;;
37445;SDS011;23307;51.136;14.942;2022-12-26T15:39:27;0.85;;;0.80;;
37445;SDS011;23307;51.136;14.942;2022-12-26T15:50:52;0.80;;;0.80;;
37445;SDS011;23307;51.136;14.942;2022-12-26T15:56:16;1.15;;;0.90;;
37445;SDS011;23307;51.136;14.942;2022-12-26T15:59:08;1.02;;;0.88;;
37445;SDS011;23307;51.136;14.942;2022-12-26T16:02:11;0.68;;;0.65;;
37445;SDS011;23307;51.136;14.942;2022-12-26T16:04:56;1.42;;;1.20;;
37445;SDS011;23307;51.136;14.942;2022-12-26T16:13:00;4.13;;;2.03;;
37445;SDS011;23307;51.136;14.942;2022-12-26T16:15:51;0.80;;;0.60;;
37445;SDS011;23307;51.136;14.942;2022-12-26T16:18:21;1.10;;;0.90;;
37445;SDS011;23307;51.136;14.942;2022-12-26T16:20:51;0.70;;;0.68;;
37445;SDS011;23307;51.136;14.942;2022-12-26T16:23:37;1.52;;;0.63;;
37445;SDS011;23307;51.136;14.942;2022-12-26T16:26:05;1.08;;;0.98;;
37445;SDS011;23307;51.136;14.942;2022-12-26T16:28:35;2.33;;;0.88;;
37445;SDS011;23307;51.136;14.942;2022-12-26T16:31:03;1.13;;;1.00;;
37445;SDS011;23307;51.136;14.942;2022-12-26T16:33:39;1.63;;;1.02;;
37445;SDS011;23307;51.136;14.942;2022-12-26T16:36:07;2.03;;;1.23;;
37445;SDS011;23307;51.136;14.942;2022-12-26T16:38:34;2.40;;;1.30;;
37445;SDS011;23307;51.136;14.942;2022-12-26T16:41:00;1.55;;;1.15;;
37445;SDS011;23307;51.136;14.942;2022-12-26T16:43:29;1.50;;;1.15;;
37445;SDS011;23307;51.136;14.942;2022-12-26T16:46:00;1.30;;;1.20;;
37445;SDS011;23307;51.136;14.942;2022-12-26T16:48:29;1.42;;;1.30;;
37445;SDS011;23307;51.136;14.942;2022-12-26T16:51:03;2.55;;;1.58;;
37445;SDS011;23307;51.136;14.942;2022-12-26T16:53:52;1.70;;;1.33;;
37445;SDS011;23307;51.136;14.942;2022-12-26T16:56:31;1.90;;;1.45;;
37445;SDS011;23307;51.136;14.942;2022-12-26T17:08:09;2.20;;;1.75;;
37445;SDS011;23307;51.136;14.942;2022-12-26T17:16:44;3.03;;;2.53;;
37445;SDS011;23307;51.136;14.942;2022-12-26T17:19:20;2.10;;;1.80;;
37445;SDS011;23307;51.136;14.942;2022-12-26T17:22:17;3.63;;;2.85;;
37445;SDS011;23307;51.136;14.942;2022-12-26T17:27:47;2.95;;;2.00;;
37445;SDS011;23307;51.136;14.942;2022-12-26T17:30:33;2.67;;;2.13;;
37445;SDS011;23307;51.136;14.942;2022-12-26T17:33:09;3.03;;;2.10;;
37445;SDS011;23307;51.136;14.942;2022-12-26T17:35:38;2.55;;;2.00;;
37445;SDS011;23307;51.136;14.942;2022-12-26T17:38:05;2.85;;;2.40;;
37445;SDS011;23307;51.136;14.942;2022-12-26T17:40:39;3.10;;;2.28;;
37445;SDS011;23307;51.136;14.942;2022-12-26T17:45:41;6.15;;;2.92;;
37445;SDS011;23307;51.136;14.942;2022-12-26T17:48:19;3.97;;;3.13;;
37445;SDS011;23307;51.136;14.942;2022-12-26T17:50:48;3.22;;;2.92;;
37445;SDS011;23307;51.136;14.942;2022-12-26T17:53:23;4.28;;;2.67;;
37445;SDS011;23307;51.136;14.942;2022-12-26T17:56:04;3.90;;;3.00;;
37445;SDS011;23307;51.136;14.942;2022-12-26T17:58:31;4.80;;;2.90;;
37445;SDS011;23307;51.136;14.942;2022-12-26T18:00:58;5.07;;;3.17;;
37445;SDS011;23307;51.136;14.942;2022-12-26T18:03:24;5.20;;;3.95;;
37445;SDS011;23307;51.136;14.942;2022-12-26T18:05:51;4.57;;;3.40;;
37445;SDS011;23307;51.136;14.942;2022-12-26T18:08:25;5.07;;;2.97;;
37445;SDS011;23307;51.136;14.942;2022-12-26T18:11:00;4.68;;;3.58;;
37445;SDS011;23307;51.136;14.942;2022-12-26T18:13:27;4.30;;;3.50;;
37445;SDS011;23307;51.136;14.942;2022-12-26T18:15:53;6.32;;;4.07;;
37445;SDS011;23307;51.136;14.942;2022-12-26T18:18:31;6.50;;;4.18;;
37445;SDS011;23307;51.136;14.942;2022-12-26T18:20:59;5.28;;;4.20;;
37445;SDS011;23307;51.136;14.942;2022-12-26T18:23:25;5.28;;;4.00;;